Mirando City, Texas
Current Conditions -  °F | °C
As of 8:55 PM on Monday 22 Dec 2014 (Local Time) from KHBV Reporting Station
Clear Clear  
Wind Chill: 59°   Ceiling: Unl
Heat Index: 59°   Visibility: 10mi
Dew Point: 55°   Wind: 3mph
Humidity: 88%   Direction: 160°SSE
Pressure: 29.64"   Gusts: NA
Location:  27.44°N, 99°W
Report Text: KHBV 230255Z AUTO 16003KT 10SM CLR 15/13 A2964 RMK AO2 T01500130
Loading
Personal Weather Stations






























Interactive Weather Map New forecast layout! Learn more

10-Day Weather Forecast

Advertisements
Track Severe Weather on mobile